Adelaide, South Australia

2:22 AM ACST on July 08, 2015 (GMT +0930)
Adelaide International | | Change Station
CLOSE
Current Station
Airport
Location: Adelaide,
Elevation: 20 ft
Nearby Weather Stations

Elev 20 ft 34.95 °S, 138.52 °E | Updated 22 minutes ago

Patches of Fog
Patches Fog
50 °F
Feels Like 50 °F
N
6
Wind Variable Wind from NNE

Today
High -- | Low -- °F
--% Chance of Precip.
Yesterday
High -- | Low -- °F
Precip. -- in
7:23 AM 5:18 PM
Waning Gibbous, 63% visible
Pressure 30.21 in
Visibility 6.2 miles
Clouds Few 1400 ft
Dew Point 48 °F
Humidity 94%
Rainfall 0.00 in
Snow Depth Not available.
UV 0 out of 12
Pollen Not available.
Air Quality Not available.
Flu Activity Not available.
SPECI YPAD 071630Z 02005KT 9999 BCFG FEW014 10/09 Q1023 FM1900 04005KT 0500 FG

More Conditions Fewer Conditions

Pressure 30.21 in
Visibility 6.2 miles
Clouds Few 1400 ft
Dew Point 48 °F
Humidity 94%
Rainfall 0.00 in
Snow Depth Not available.
UV 0 out of 12
Pollen Not available.
Air Quality Not available.
Flu Activity Not available.
SPECI YPAD 071630Z 02005KT 9999 BCFG FEW014 10/09 Q1023 FM1900 04005KT 0500 FG

More Conditions Fewer Conditions

10-Day Weather Forecast

×

Almanac

Astronomy

Jul. 08, 2015 Rise Set
Actual Time
Civil Twilight
Nautical Twilight
Astronomical Twilight
Moon
Length of Visible Light
Length of Day
Tomorrow will be .
, % of the Moon is Illuminated

Today's Extremes

Country Highs Country Lows

Community

WunderPhotos

Upload Photos

1,835,849 photos uploaded!

WunderBlogs® & News

Nearby

Air Quality

  Air Quality AQ Index Pollutant
Not available.

Snow Depth

Station Depth Elevation

Earthquake Activity

City Distance Mag. Time & Date
Minimum magnitude displayed is 2.5.

Coastal Water Temperatures

Place Temperature

Stations

Nearby Weather Stations

Station Location Temp. Windchill Dew Point Humidity Wind Precip. Elev Updated Type